LWSK/SKP METAR and TAF weather

Enter ICAO airport designator
Station Type Date Time Source
LWSK METAR 2022/12/08 12:30 UTC NOAA

LWSK 081230Z 00000KT 9999 SCT030 BKN090 12/08 Q1014 NOSIG


Station Type Date Time Source
LWSK Decoded METAR 2022/12/08 12:30 UTC NOAA

Skopje-Petrovec, Macedonia, The Republic of (LWSK) 41-58N 021-39E 239M
Dec 08, 2022 - 07:30 AM EST / 2022.12.08 1230 UTC
Wind: Calm:0
Visibility: greater than 7 mile(s):0
Sky conditions: mostly cloudy
Temperature: 53 F (12 C)
Dew Point: 46 F (8 C)
Relative Humidity: 76%
Pressure (altimeter): 29.94 in. Hg (1014 hPa)
ob: LWSK 081230Z 00000KT 9999 SCT030 BKN090 12/08 Q1014 NOSIG
cycle: 12

Station Type Date Time Source
LWSK TAF 2022/12/08 12:37 UTC NOAA

TAF LWSK 081130Z 0812/0912 VRB02KT 9999 SCT030 BKN080 PROB30
TEMPO 0903/0906 1500 BR SCT010 BKN030

Example: see airport list